createdAt,value
2023-02-17T00:00:37.647Z,10.78
2023-02-17T00:01:37.645Z,10.74
2023-02-17T00:02:37.677Z,10.70
2023-02-17T00:03:37.728Z,10.66
2023-02-17T00:04:37.589Z,10.58
2023-02-17T00:05:37.562Z,10.60
2023-02-17T00:06:37.597Z,10.65
2023-02-17T00:07:37.554Z,10.71
2023-02-17T00:08:37.569Z,10.74
2023-02-17T00:09:37.550Z,10.71
2023-02-17T00:10:37.539Z,10.71
2023-02-17T00:11:37.539Z,10.68
2023-02-17T00:12:37.469Z,10.70
2023-02-17T00:13:37.532Z,10.73
2023-02-17T00:14:37.460Z,10.88
2023-02-17T00:15:37.499Z,10.89
2023-02-17T00:16:37.458Z,10.86
2023-02-17T00:17:37.433Z,10.86
2023-02-17T00:18:37.406Z,10.77
2023-02-17T00:19:37.427Z,10.80
2023-02-17T00:20:37.397Z,10.86
2023-02-17T00:21:37.513Z,10.84
2023-02-17T00:22:37.400Z,10.91
2023-02-17T00:23:37.337Z,10.83
2023-02-17T00:24:37.317Z,10.88
2023-02-17T00:25:37.335Z,10.92
2023-02-17T00:26:37.288Z,10.98
2023-02-17T00:27:37.330Z,11.02
2023-02-17T00:28:37.280Z,11.09
2023-02-17T00:29:37.250Z,11.24
2023-02-17T00:30:37.289Z,11.39
2023-02-17T00:31:37.343Z,11.57
2023-02-17T00:32:37.239Z,11.70
2023-02-17T00:33:37.223Z,11.72
2023-02-17T00:34:37.244Z,11.70
2023-02-17T00:35:37.171Z,11.77
2023-02-17T00:36:37.181Z,11.85
2023-02-17T00:37:37.196Z,11.89
2023-02-17T00:38:37.141Z,11.89
2023-02-17T00:39:37.192Z,11.94
2023-02-17T00:40:37.118Z,11.90
2023-02-17T00:41:37.101Z,11.89
2023-02-17T00:42:37.102Z,11.82
2023-02-17T00:43:37.108Z,11.75
2023-02-17T00:44:37.066Z,11.70
2023-02-17T00:45:37.069Z,11.74
2023-02-17T00:46:37.075Z,11.71
2023-02-17T00:47:37.025Z,11.78
2023-02-17T00:48:37.081Z,11.78
2023-02-17T00:49:37.034Z,11.83
2023-02-17T00:50:36.973Z,11.93
2023-02-17T00:51:37.002Z,11.93
2023-02-17T00:52:37.005Z,12.01
2023-02-17T00:53:36.974Z,12.02
2023-02-17T00:54:36.983Z,12.02
2023-02-17T00:55:36.928Z,12.08
2023-02-17T00:56:36.913Z,12.04
2023-02-17T00:57:36.915Z,11.99
2023-02-17T00:58:36.980Z,12.04
2023-02-17T00:59:36.867Z,12.11
2023-02-17T01:00:36.869Z,12.12
2023-02-17T01:01:36.892Z,12.01
2023-02-17T01:02:36.839Z,11.94
2023-02-17T01:03:36.824Z,11.89
2023-02-17T01:04:36.887Z,11.97
2023-02-17T01:05:36.814Z,11.96
2023-02-17T01:06:36.764Z,12.01
2023-02-17T01:07:36.786Z,11.97
2023-02-17T01:08:36.774Z,11.97
2023-02-17T01:09:36.782Z,11.96
2023-02-17T01:10:36.745Z,11.97
2023-02-17T01:11:36.746Z,11.97
2023-02-17T01:12:36.699Z,11.90
2023-02-17T01:13:36.740Z,11.93
2023-02-17T01:14:36.698Z,11.93
2023-02-17T01:15:36.693Z,11.86
2023-02-17T01:16:36.710Z,11.87
2023-02-17T01:17:36.623Z,11.86
2023-02-17T01:18:36.612Z,11.85
2023-02-17T01:19:36.621Z,11.99
2023-02-17T01:20:36.626Z,12.05
2023-02-17T01:21:36.597Z,12.04
2023-02-17T01:22:36.604Z,12.02
2023-02-17T01:23:36.560Z,12.08
2023-02-17T01:24:36.542Z,12.02
2023-02-17T01:25:36.567Z,12.05
2023-02-17T01:26:36.504Z,12.09
2023-02-17T01:27:36.541Z,12.13
2023-02-17T01:28:36.544Z,12.15
2023-02-17T01:29:36.503Z,12.15
2023-02-17T01:30:36.458Z,12.19
2023-02-17T01:31:36.576Z,12.15
2023-02-17T01:32:36.424Z,12.12
2023-02-17T01:33:36.453Z,12.09
2023-02-17T01:34:36.430Z,12.06
2023-02-17T01:35:36.455Z,12.06
2023-02-17T01:36:36.368Z,12.05
2023-02-17T01:37:36.381Z,12.04
2023-02-17T01:38:36.361Z,12.01
2023-02-17T01:39:36.373Z,12.04
2023-02-17T01:40:36.358Z,12.04
2023-02-17T01:41:36.336Z,12.08
2023-02-17T01:42:36.302Z,12.06
2023-02-17T01:43:36.304Z,12.09
2023-02-17T01:44:36.270Z,12.08
2023-02-17T01:45:36.378Z,12.02
2023-02-17T01:46:36.326Z,11.96
2023-02-17T01:47:36.223Z,11.94
2023-02-17T01:48:36.235Z,11.90
2023-02-17T01:49:36.243Z,11.78
2023-02-17T01:50:36.245Z,11.77
2023-02-17T01:51:36.234Z,11.78
2023-02-17T01:52:36.217Z,11.89
2023-02-17T01:53:36.176Z,11.93
2023-02-17T01:54:36.139Z,11.87
2023-02-17T01:55:36.117Z,11.80
2023-02-17T01:56:36.116Z,11.75
2023-02-17T01:57:36.125Z,11.67
2023-02-17T01:58:36.154Z,11.71
2023-02-17T01:59:36.112Z,11.77
2023-02-17T02:00:36.043Z,11.80
2023-02-17T02:01:36.143Z,11.87
2023-02-17T02:02:36.247Z,11.83
2023-02-17T02:03:36.048Z,11.96
2023-02-17T02:04:36.011Z,12.02
2023-02-17T02:05:37.553Z,11.94
2023-02-17T02:06:35.980Z,11.99
2023-02-17T02:07:35.963Z,12.01
2023-02-17T02:08:35.987Z,11.93
2023-02-17T02:09:35.963Z,11.89
2023-02-17T02:10:35.950Z,11.93
2023-02-17T02:11:35.946Z,11.89
2023-02-17T02:12:35.898Z,11.93
2023-02-17T02:13:35.887Z,11.94
2023-02-17T02:14:35.904Z,11.94
2023-02-17T02:15:35.904Z,11.97
2023-02-17T02:16:35.929Z,12.11
2023-02-17T02:17:35.875Z,12.20
2023-02-17T02:18:35.820Z,12.15
2023-02-17T02:19:35.796Z,12.06
2023-02-17T02:20:35.830Z,12.01
2023-02-17T02:21:35.804Z,11.90
2023-02-17T02:22:35.769Z,11.85
2023-02-17T02:23:35.784Z,11.87
2023-02-17T02:24:35.769Z,11.87
2023-02-17T02:25:35.748Z,11.94
2023-02-17T02:26:35.779Z,12.01
2023-02-17T02:27:35.744Z,11.94
2023-02-17T02:28:35.699Z,11.99
2023-02-17T02:29:35.701Z,12.04
2023-02-17T02:30:35.648Z,12.06
2023-02-17T02:31:35.738Z,12.06
2023-02-17T02:32:35.742Z,12.05
2023-02-17T02:33:35.648Z,12.11
2023-02-17T02:34:35.610Z,12.09
2023-02-17T02:35:35.641Z,12.05
2023-02-17T02:36:35.582Z,12.02
2023-02-17T02:37:35.569Z,12.04
2023-02-17T02:38:35.592Z,12.02
2023-02-17T02:39:35.571Z,11.94
2023-02-17T02:40:35.557Z,11.93
2023-02-17T02:41:35.599Z,11.89
2023-02-17T02:42:35.529Z,11.90
2023-02-17T02:43:35.489Z,11.94
2023-02-17T02:44:35.531Z,11.90
2023-02-17T02:45:35.594Z,11.87
2023-02-17T02:46:35.460Z,11.94
2023-02-17T02:47:35.468Z,11.97
2023-02-17T02:48:35.428Z,12.01
2023-02-17T02:49:35.445Z,11.97
2023-02-17T02:50:35.415Z,11.93
2023-02-17T02:51:35.422Z,11.87
2023-02-17T02:52:35.385Z,11.89
2023-02-17T02:53:35.394Z,11.93
2023-02-17T02:54:35.372Z,11.89
2023-02-17T02:55:35.336Z,11.99
2023-02-17T02:56:35.357Z,12.06
2023-02-17T02:57:35.395Z,12.02
2023-02-17T02:58:35.335Z,12.02
2023-02-17T02:59:35.276Z,11.99
2023-02-17T03:00:35.266Z,11.99
2023-02-17T03:01:35.254Z,12.02
2023-02-17T03:02:35.237Z,12.09
2023-02-17T03:03:35.406Z,12.05
2023-02-17T03:04:35.226Z,11.97
2023-02-17T03:05:35.240Z,11.94
2023-02-17T03:06:35.198Z,12.02
2023-02-17T03:07:35.170Z,12.06
2023-02-17T03:08:35.167Z,12.05
2023-02-17T03:09:35.196Z,12.04
2023-02-17T03:10:35.137Z,11.94
2023-02-17T03:11:35.115Z,11.96
2023-02-17T03:12:35.131Z,11.99
2023-02-17T03:13:35.116Z,12.02
2023-02-17T03:14:35.098Z,12.02
2023-02-17T03:15:35.135Z,11.99
2023-02-17T03:16:35.184Z,11.97
2023-02-17T03:17:35.030Z,12.11
2023-02-17T03:18:35.070Z,12.11
2023-02-17T03:19:35.016Z,12.08
2023-02-17T03:20:35.006Z,11.99
2023-02-17T03:21:35.067Z,11.96
2023-02-17T03:22:34.980Z,11.99
2023-02-17T03:23:34.975Z,11.97
2023-02-17T03:24:34.953Z,12.02
2023-02-17T03:25:34.998Z,12.06
2023-02-17T03:26:34.928Z,12.06
2023-02-17T03:27:34.973Z,12.08
2023-02-17T03:28:34.937Z,12.04
2023-02-17T03:29:34.882Z,12.09
2023-02-17T03:30:34.959Z,12.11
2023-02-17T03:31:35.025Z,12.08
2023-02-17T03:32:34.835Z,12.05
2023-02-17T03:33:34.837Z,12.04
2023-02-17T03:34:34.814Z,11.99
2023-02-17T03:35:34.844Z,12.02
2023-02-17T03:36:34.842Z,12.02
2023-02-17T03:37:34.803Z,12.05
2023-02-17T03:38:34.775Z,12.06
2023-02-17T03:39:34.767Z,12.05
2023-02-17T03:40:34.734Z,12.01
2023-02-17T03:41:34.796Z,11.99
2023-02-17T03:42:34.712Z,11.94
2023-02-17T03:43:34.715Z,11.94
2023-02-17T03:44:34.703Z,11.97
2023-02-17T03:45:34.716Z,11.96
2023-02-17T03:46:34.712Z,11.99
2023-02-17T03:47:34.722Z,12.02
2023-02-17T03:48:34.625Z,12.01
2023-02-17T03:49:34.688Z,12.02
2023-02-17T03:50:34.648Z,12.11
2023-02-17T03:51:34.604Z,12.15
2023-02-17T03:52:34.579Z,12.13
2023-02-17T03:53:34.554Z,12.19
2023-02-17T03:54:34.598Z,12.15
2023-02-17T03:55:34.562Z,12.11
2023-02-17T03:56:34.543Z,12.15
2023-02-17T03:57:34.501Z,12.09
2023-02-17T03:58:34.515Z,12.04
2023-02-17T03:59:34.491Z,11.96
2023-02-17T04:00:34.461Z,11.94
2023-02-17T04:01:34.512Z,11.96
2023-02-17T04:02:34.528Z,12.02
2023-02-17T04:03:34.574Z,12.08
2023-02-17T04:04:34.420Z,12.15
2023-02-17T04:05:34.401Z,12.20
2023-02-17T04:06:34.483Z,12.21
2023-02-17T04:07:34.388Z,12.21
2023-02-17T04:08:34.362Z,12.19
2023-02-17T04:09:34.371Z,12.12
2023-02-17T04:10:34.355Z,12.11
2023-02-17T04:11:34.349Z,12.11
2023-02-17T04:12:34.376Z,12.11
2023-02-17T04:13:34.339Z,12.15
2023-02-17T04:14:34.306Z,12.12
2023-02-17T04:15:34.310Z,12.09
2023-02-17T04:16:34.276Z,12.13
2023-02-17T04:17:34.230Z,12.23
2023-02-17T04:18:34.231Z,12.29
2023-02-17T04:19:34.241Z,12.24
2023-02-17T04:20:34.227Z,12.29
2023-02-17T04:21:34.182Z,12.34
2023-02-17T04:22:34.172Z,12.44
2023-02-17T04:23:34.267Z,12.49
2023-02-17T04:24:34.160Z,12.52
2023-02-17T04:25:34.174Z,12.56
2023-02-17T04:26:34.211Z,12.57
2023-02-17T04:27:34.101Z,12.59
2023-02-17T04:28:34.099Z,12.57
2023-02-17T04:29:34.261Z,12.52
2023-02-17T04:30:34.125Z,12.59
2023-02-17T04:31:34.172Z,12.62
2023-02-17T04:32:34.041Z,12.63
2023-02-17T04:33:34.104Z,12.59
2023-02-17T04:34:34.003Z,12.56
2023-02-17T04:35:33.999Z,12.46
2023-02-17T04:36:33.983Z,12.46
2023-02-17T04:37:34.039Z,12.56
2023-02-17T04:38:33.967Z,12.62
2023-02-17T04:39:33.967Z,12.62
2023-02-17T04:40:33.917Z,12.62
2023-02-17T04:41:33.907Z,12.63
2023-02-17T04:42:33.920Z,12.56
2023-02-17T04:43:33.918Z,12.52
2023-02-17T04:44:33.864Z,12.57
2023-02-17T04:45:33.883Z,12.56
2023-02-17T04:46:33.879Z,12.60
2023-02-17T04:47:33.845Z,12.59
2023-02-17T04:48:33.872Z,12.60
2023-02-17T04:49:33.909Z,12.60
2023-02-17T04:50:33.786Z,12.62
2023-02-17T04:51:33.799Z,12.60
2023-02-17T04:52:33.748Z,12.63
2023-02-17T04:53:33.745Z,12.70
2023-02-17T04:54:33.735Z,12.71
2023-02-17T04:55:33.773Z,12.77
2023-02-17T04:56:33.706Z,12.77
2023-02-17T04:57:33.680Z,12.77
2023-02-17T04:58:33.687Z,12.81
2023-02-17T04:59:33.685Z,12.77
2023-02-17T05:00:33.654Z,12.70
2023-02-17T05:01:33.691Z,12.67
2023-02-17T05:02:33.705Z,12.70
2023-02-17T05:03:33.594Z,12.67
2023-02-17T05:04:33.651Z,12.71
2023-02-17T05:05:33.605Z,12.81
2023-02-17T05:06:33.567Z,12.82
2023-02-17T05:07:33.598Z,12.82
2023-02-17T05:08:33.576Z,12.82
2023-02-17T05:09:33.539Z,12.77
2023-02-17T05:10:33.666Z,12.81
2023-02-17T05:11:33.521Z,12.79
2023-02-17T05:12:33.474Z,12.89
2023-02-17T05:13:33.492Z,12.92
2023-02-17T05:14:33.492Z,12.95
2023-02-17T05:15:34.972Z,12.95
2023-02-17T05:16:33.426Z,12.89
2023-02-17T05:17:33.470Z,12.85
2023-02-17T05:18:33.416Z,12.87
2023-02-17T05:19:33.448Z,12.85
2023-02-17T05:20:33.425Z,12.81
2023-02-17T05:21:33.375Z,12.81
2023-02-17T05:22:33.391Z,12.81
2023-02-17T05:23:33.356Z,12.81
2023-02-17T05:24:33.316Z,12.82
2023-02-17T05:25:33.393Z,12.88
2023-02-17T05:26:33.352Z,12.84
2023-02-17T05:27:33.281Z,12.92
2023-02-17T05:28:33.265Z,12.93
2023-02-17T05:29:33.304Z,12.87
2023-02-17T05:30:33.246Z,12.95
2023-02-17T05:31:33.521Z,12.95
2023-02-17T05:32:33.226Z,12.97
2023-02-17T05:33:33.189Z,13.02
2023-02-17T05:34:33.243Z,13.03
2023-02-17T05:35:35.022Z,13.06
2023-02-17T05:36:33.185Z,13.04
2023-02-17T05:37:33.196Z,13.12
2023-02-17T05:38:33.148Z,13.15
2023-02-17T05:39:33.240Z,13.18
2023-02-17T05:40:33.157Z,13.21
2023-02-17T05:41:33.150Z,13.21
2023-02-17T05:42:33.078Z,13.21
2023-02-17T05:43:33.135Z,13.18
2023-02-17T05:44:34.028Z,13.20
2023-02-17T05:45:33.034Z,13.17
2023-02-17T05:46:33.107Z,13.17
2023-02-17T05:47:33.027Z,13.24
2023-02-17T05:48:32.997Z,13.25
2023-02-17T05:49:33.061Z,13.22
2023-02-17T05:50:32.964Z,13.20
2023-02-17T05:51:32.945Z,13.21
2023-02-17T05:52:32.958Z,13.24
2023-02-17T05:53:32.960Z,13.25
2023-02-17T05:54:32.916Z,13.29
2023-02-17T05:55:32.928Z,13.29
2023-02-17T05:56:32.976Z,13.25
2023-02-17T05:57:32.929Z,13.30
2023-02-17T05:58:32.897Z,13.27
2023-02-17T05:59:32.866Z,13.21
2023-02-17T06:00:32.861Z,13.24
2023-02-17T06:01:32.827Z,13.29
2023-02-17T06:02:32.883Z,13.24
2023-02-17T06:03:32.874Z,13.17
2023-02-17T06:04:32.829Z,13.18
2023-02-17T06:05:32.768Z,13.15
2023-02-17T06:06:32.794Z,13.24
2023-02-17T06:07:32.764Z,13.33
2023-02-17T06:08:32.770Z,13.29
2023-02-17T06:09:32.795Z,13.30
2023-02-17T06:10:32.724Z,13.33
2023-02-17T06:11:32.691Z,13.29
2023-02-17T06:12:32.711Z,13.20
2023-02-17T06:13:32.670Z,13.18
2023-02-17T06:14:32.696Z,13.20
2023-02-17T06:15:32.653Z,13.09
2023-02-17T06:16:32.696Z,13.03
2023-02-17T06:17:32.610Z,13.00
2023-02-17T06:18:32.647Z,13.06
2023-02-17T06:19:32.620Z,13.14
2023-02-17T06:20:32.628Z,13.14
2023-02-17T06:21:32.568Z,13.18
2023-02-17T06:22:32.559Z,13.20
2023-02-17T06:23:32.548Z,13.20
2023-02-17T06:24:32.537Z,13.07
2023-02-17T06:25:32.508Z,13.07
2023-02-17T06:26:32.619Z,13.18
2023-02-17T06:27:32.493Z,13.22
2023-02-17T06:28:34.956Z,13.21
2023-02-17T06:29:32.471Z,13.24
2023-02-17T06:30:32.581Z,13.24
2023-02-17T06:31:32.563Z,13.21
2023-02-17T06:32:32.469Z,13.17
2023-02-17T06:33:32.401Z,13.18
2023-02-17T06:34:32.378Z,13.21
2023-02-17T06:35:32.355Z,13.33
2023-02-17T06:36:32.347Z,13.33
2023-02-17T06:37:32.336Z,13.33
2023-02-17T06:38:32.360Z,13.24
2023-02-17T06:39:32.305Z,13.14
2023-02-17T06:40:32.294Z,13.11
2023-02-17T06:41:32.284Z,13.14
2023-02-17T06:42:32.282Z,13.15
2023-02-17T06:43:32.274Z,13.09
2023-02-17T06:44:32.281Z,13.20
2023-02-17T06:45:32.280Z,13.15
2023-02-17T06:46:32.250Z,13.20
2023-02-17T06:47:32.217Z,13.21
2023-02-17T06:48:32.183Z,13.30
2023-02-17T06:49:32.252Z,13.33
2023-02-17T06:50:32.188Z,13.32
2023-02-17T06:51:32.146Z,13.21
2023-02-17T06:52:32.162Z,13.21
2023-02-17T06:53:32.130Z,13.11
2023-02-17T06:54:32.107Z,13.18
2023-02-17T06:55:32.108Z,13.14
2023-02-17T06:56:32.138Z,13.07
2023-02-17T06:57:32.082Z,13.12
2023-02-17T06:58:32.104Z,13.21
2023-02-17T06:59:32.101Z,13.14
2023-02-17T07:00:32.012Z,13.14
2023-02-17T07:01:32.012Z,13.17
2023-02-17T07:02:32.147Z,13.18
2023-02-17T07:03:31.996Z,13.12
2023-02-17T07:04:31.989Z,13.09
2023-02-17T07:05:32.023Z,13.14
2023-02-17T07:06:31.934Z,13.11
2023-02-17T07:07:31.965Z,13.11
2023-02-17T07:08:34.028Z,13.11
2023-02-17T07:09:31.899Z,13.00
2023-02-17T07:10:31.908Z,13.09
2023-02-17T07:11:31.945Z,13.14
2023-02-17T07:12:31.870Z,13.07
2023-02-17T07:13:31.849Z,13.12
2023-02-17T07:14:31.827Z,13.12
2023-02-17T07:15:31.851Z,13.14
2023-02-17T07:16:31.866Z,13.17
2023-02-17T07:17:31.828Z,13.25
2023-02-17T07:18:31.778Z,13.32
2023-02-17T07:19:31.808Z,13.36
2023-02-17T07:20:31.768Z,13.27
2023-02-17T07:21:31.737Z,13.24
2023-02-17T07:22:31.786Z,13.21
2023-02-17T07:23:31.765Z,13.25
2023-02-17T07:24:31.700Z,13.22
2023-02-17T07:25:31.748Z,13.27
2023-02-17T07:26:31.685Z,13.25
2023-02-17T07:27:31.692Z,13.29
2023-02-17T07:28:31.761Z,13.25
2023-02-17T07:29:31.677Z,13.22
2023-02-17T07:30:31.679Z,13.27
2023-02-17T07:31:31.718Z,13.25
2023-02-17T07:32:31.654Z,13.17
2023-02-17T07:33:31.588Z,13.21
2023-02-17T07:34:31.592Z,13.24
2023-02-17T07:35:31.816Z,13.22
2023-02-17T07:36:31.535Z,13.11
2023-02-17T07:37:31.538Z,13.17
2023-02-17T07:38:33.385Z,13.29
2023-02-17T07:39:31.525Z,13.29
2023-02-17T07:40:31.494Z,13.24
2023-02-17T07:41:31.581Z,13.20
2023-02-17T07:42:31.480Z,13.25
2023-02-17T07:43:31.453Z,13.27
2023-02-17T07:44:31.524Z,13.32
2023-02-17T07:45:31.458Z,13.27
2023-02-17T07:46:31.418Z,13.27
2023-02-17T07:47:31.462Z,13.29
2023-02-17T07:48:31.395Z,13.33
2023-02-17T07:49:31.384Z,13.32
2023-02-17T07:50:31.388Z,13.27
2023-02-17T07:51:31.375Z,13.29
2023-02-17T07:52:31.363Z,13.30
2023-02-17T07:53:31.349Z,13.30
2023-02-17T07:54:31.312Z,13.32
2023-02-17T07:55:31.321Z,13.25
2023-02-17T07:56:31.463Z,13.25
2023-02-17T07:57:31.283Z,13.36
2023-02-17T07:58:31.281Z,13.24
2023-02-17T07:59:31.269Z,13.29
2023-02-17T08:00:31.221Z,13.17
2023-02-17T08:01:31.260Z,13.18
2023-02-17T08:02:31.252Z,13.25
2023-02-17T08:03:31.190Z,13.29
2023-02-17T08:04:31.222Z,13.30
2023-02-17T08:05:31.234Z,13.22
2023-02-17T08:06:31.124Z,13.18
2023-02-17T08:07:31.133Z,13.21
2023-02-17T08:08:31.157Z,13.27
2023-02-17T08:09:31.119Z,13.32
2023-02-17T08:10:31.130Z,13.25
2023-02-17T08:11:31.091Z,13.24
2023-02-17T08:12:31.061Z,13.29
2023-02-17T08:13:31.126Z,13.37
2023-02-17T08:14:31.048Z,13.40
2023-02-17T08:15:31.064Z,13.37
2023-02-17T08:16:31.008Z,13.38
2023-02-17T08:17:31.011Z,13.36
2023-02-17T08:18:36.228Z,13.44
2023-02-17T08:19:47.092Z,13.44
2023-02-17T08:20:34.190Z,13.36
2023-02-17T08:21:30.960Z,13.41
2023-02-17T08:22:30.929Z,13.43
2023-02-17T08:23:30.995Z,13.41
2023-02-17T08:24:30.911Z,13.36
2023-02-17T08:25:31.005Z,13.32
2023-02-17T08:26:30.870Z,13.25
2023-02-17T08:27:30.931Z,13.29
2023-02-17T08:28:30.889Z,13.27
2023-02-17T08:29:30.841Z,13.30
2023-02-17T08:30:30.923Z,13.24
2023-02-17T08:31:31.056Z,13.41
2023-02-17T08:32:30.860Z,13.47
2023-02-17T08:33:30.816Z,13.46
2023-02-17T08:34:30.830Z,13.46
2023-02-17T08:35:30.788Z,13.43
2023-02-17T08:36:30.731Z,13.51
2023-02-17T08:37:30.818Z,13.52
2023-02-17T08:38:30.703Z,13.54
2023-02-17T08:39:30.708Z,13.47
2023-02-17T08:40:30.709Z,13.44
2023-02-17T08:41:30.775Z,13.43
2023-02-17T08:42:30.669Z,13.51
2023-02-17T08:43:30.745Z,13.43
2023-02-17T08:44:30.635Z,13.52
2023-02-17T08:45:30.653Z,13.52
2023-02-17T08:46:30.725Z,13.51
2023-02-17T08:47:30.585Z,13.52
2023-02-17T08:48:30.591Z,13.47
2023-02-17T08:49:30.629Z,13.43
2023-02-17T08:50:30.550Z,13.41
2023-02-17T08:51:30.552Z,13.47
2023-02-17T08:52:30.583Z,13.49
2023-02-17T08:53:30.537Z,13.43
2023-02-17T08:54:30.510Z,13.44
2023-02-17T08:55:43.996Z,13.52
2023-02-17T08:56:31.507Z,13.61
2023-02-17T08:57:30.481Z,13.49
2023-02-17T08:58:30.490Z,13.55
2023-02-17T08:59:30.481Z,13.55
2023-02-17T09:00:30.431Z,13.54
2023-02-17T09:01:30.500Z,13.52
2023-02-17T09:02:30.488Z,13.46
2023-02-17T09:03:30.450Z,13.51
2023-02-17T09:04:30.434Z,13.55
2023-02-17T09:05:30.415Z,13.58
2023-02-17T09:06:30.380Z,13.49
2023-02-17T09:07:30.427Z,13.46
2023-02-17T09:08:30.321Z,13.46
2023-02-17T09:09:30.499Z,13.43
2023-02-17T09:10:30.319Z,13.44
2023-02-17T09:11:30.303Z,13.49
2023-02-17T09:12:30.292Z,13.52
2023-02-17T09:13:30.334Z,13.55
2023-02-17T09:14:30.270Z,13.58
2023-02-17T09:15:30.330Z,13.59
2023-02-17T09:16:30.277Z,13.47
2023-02-17T09:17:30.181Z,13.58
2023-02-17T09:18:30.359Z,13.63
2023-02-17T09:19:30.317Z,13.61
2023-02-17T09:20:30.320Z,13.59
2023-02-17T09:21:30.188Z,13.58
2023-02-17T09:22:32.378Z,13.65
2023-02-17T09:23:30.135Z,13.71
2023-02-17T09:24:30.155Z,13.73
2023-02-17T09:25:30.175Z,13.71
2023-02-17T09:26:30.150Z,13.67
2023-02-17T09:27:30.094Z,13.74
2023-02-17T09:28:30.211Z,13.73
2023-02-17T09:29:30.044Z,13.71
2023-02-17T09:30:30.128Z,13.71
2023-02-17T09:31:30.309Z,13.87
2023-02-17T09:32:30.030Z,13.83
2023-02-17T09:33:29.992Z,13.83
2023-02-17T09:34:30.052Z,13.80
2023-02-17T09:35:30.001Z,13.84
2023-02-17T09:36:30.008Z,13.77
2023-02-17T09:37:29.938Z,13.77
2023-02-17T09:38:29.984Z,13.81
2023-02-17T09:39:29.914Z,13.89
2023-02-17T09:40:29.934Z,13.87
2023-02-17T09:41:29.904Z,13.89
2023-02-17T09:42:29.855Z,13.89
2023-02-17T09:43:29.883Z,13.92
2023-02-17T09:44:29.874Z,13.92
2023-02-17T09:45:29.889Z,13.94
2023-02-17T09:46:29.904Z,13.99
2023-02-17T09:47:29.877Z,14.06
2023-02-17T09:48:29.830Z,14.02
2023-02-17T09:49:29.884Z,13.98
2023-02-17T09:50:29.799Z,13.89
2023-02-17T09:51:29.814Z,13.89
2023-02-17T09:52:29.817Z,13.87
2023-02-17T09:53:29.832Z,13.87
2023-02-17T09:54:29.786Z,13.84
2023-02-17T09:55:29.736Z,13.87
2023-02-17T09:56:31.159Z,13.94
2023-02-17T09:57:29.755Z,13.96
2023-02-17T09:58:29.654Z,14.04
2023-02-17T09:59:29.773Z,13.98
2023-02-17T10:00:29.638Z,13.98
2023-02-17T10:01:29.611Z,14.01
2023-02-17T10:02:29.614Z,13.96
2023-02-17T10:03:29.701Z,14.06
2023-02-17T10:04:29.681Z,14.06
2023-02-17T10:05:29.686Z,14.01
2023-02-17T10:06:29.572Z,13.95
2023-02-17T10:07:29.562Z,13.88
2023-02-17T10:08:29.526Z,13.96
2023-02-17T10:09:29.510Z,13.89
2023-02-17T10:10:29.506Z,13.89
2023-02-17T10:11:29.597Z,13.89
2023-02-17T10:12:29.469Z,13.98
2023-02-17T10:13:29.542Z,14.02
2023-02-17T10:14:29.500Z,14.04
2023-02-17T10:15:29.494Z,13.99
2023-02-17T10:16:29.433Z,13.92
2023-02-17T10:17:29.465Z,13.88
2023-02-17T10:18:29.471Z,13.91
2023-02-17T10:19:29.394Z,13.96
2023-02-17T10:20:29.353Z,13.89
2023-02-17T10:21:29.411Z,13.92
2023-02-17T10:22:29.368Z,13.92
2023-02-17T10:23:29.423Z,13.96
2023-02-17T10:24:29.428Z,13.94
2023-02-17T10:25:29.385Z,13.94
2023-02-17T10:26:29.283Z,13.98
2023-02-17T10:27:29.297Z,14.04
2023-02-17T10:28:29.369Z,13.95
2023-02-17T10:29:29.334Z,13.96
2023-02-17T10:30:29.296Z,14.14
2023-02-17T10:31:29.457Z,14.02
2023-02-17T10:32:29.349Z,14.01
2023-02-17T10:33:29.175Z,13.99
2023-02-17T10:34:29.198Z,13.98
2023-02-17T10:35:29.246Z,13.95
2023-02-17T10:36:29.182Z,13.99
2023-02-17T10:37:29.260Z,13.91
2023-02-17T10:38:29.140Z,13.95
2023-02-17T10:39:29.092Z,13.95
2023-02-17T10:40:29.168Z,13.84
2023-02-17T10:41:29.120Z,13.91
2023-02-17T10:42:29.059Z,13.95
2023-02-17T10:43:29.088Z,14.06
2023-02-17T10:44:29.052Z,13.95
2023-02-17T10:45:29.038Z,13.91
2023-02-17T10:46:29.239Z,14.02
2023-02-17T10:47:29.033Z,13.99
2023-02-17T10:48:28.978Z,13.96
2023-02-17T10:49:28.978Z,13.98
2023-02-17T10:50:28.981Z,14.04
2023-02-17T10:51:28.945Z,14.07
2023-02-17T10:52:28.929Z,13.99
2023-02-17T10:53:29.013Z,14.02
2023-02-17T10:54:28.896Z,14.10
2023-02-17T10:55:28.905Z,14.07
2023-02-17T10:56:28.983Z,14.04
2023-02-17T10:57:28.880Z,14.09
2023-02-17T10:58:28.867Z,14.17
2023-02-17T10:59:28.906Z,14.16
2023-02-17T11:00:28.887Z,14.24
2023-02-17T11:01:28.939Z,14.10
2023-02-17T11:02:28.923Z,14.07
2023-02-17T11:03:28.948Z,14.12
2023-02-17T11:04:28.845Z,14.12
2023-02-17T11:05:28.898Z,14.24
2023-02-17T11:06:28.780Z,14.21
2023-02-17T11:07:28.742Z,14.27
2023-02-17T11:08:28.764Z,14.27
2023-02-17T11:09:28.805Z,14.34
2023-02-17T11:10:28.700Z,14.39
2023-02-17T11:11:28.733Z,14.29
2023-02-17T11:12:28.695Z,14.37
2023-02-17T11:13:28.707Z,14.42
2023-02-17T11:14:28.739Z,14.44
2023-02-17T11:15:28.634Z,14.39
2023-02-17T11:16:28.711Z,14.32
2023-02-17T11:17:28.632Z,14.38
2023-02-17T11:18:28.624Z,14.43
2023-02-17T11:19:28.619Z,14.47
2023-02-17T11:20:28.566Z,14.52
2023-02-17T11:21:28.600Z,14.53
2023-02-17T11:22:28.538Z,14.46
2023-02-17T11:23:28.570Z,14.50
2023-02-17T11:24:28.551Z,14.62
2023-02-17T11:25:28.491Z,14.62
2023-02-17T11:26:28.569Z,14.60
2023-02-17T11:27:28.521Z,14.54
2023-02-17T11:28:28.537Z,14.57
2023-02-17T11:29:28.573Z,14.56
2023-02-17T11:30:28.557Z,14.64
2023-02-17T11:31:28.538Z,14.65
2023-02-17T11:32:28.422Z,14.74
2023-02-17T11:33:28.373Z,14.78
2023-02-17T11:34:28.409Z,14.75
2023-02-17T11:35:28.420Z,14.93
2023-02-17T11:36:28.443Z,14.99
2023-02-17T11:37:28.380Z,15.13
2023-02-17T11:38:28.314Z,15.17
2023-02-17T11:39:28.339Z,14.83
2023-02-17T11:40:28.455Z,14.75
2023-02-17T11:41:28.289Z,14.88
2023-02-17T11:42:28.299Z,14.91
2023-02-17T11:43:28.257Z,14.91
2023-02-17T11:44:28.309Z,15.06
2023-02-17T11:45:28.354Z,15.06
2023-02-17T11:46:28.239Z,15.09
2023-02-17T11:47:28.215Z,15.15
2023-02-17T11:48:28.278Z,15.12
2023-02-17T11:49:28.306Z,15.02
2023-02-17T11:50:40.429Z,14.99
2023-02-17T11:51:29.138Z,14.99
2023-02-17T11:52:28.202Z,15.03
2023-02-17T11:53:28.127Z,15.08
2023-02-17T11:54:28.176Z,15.12
2023-02-17T11:55:28.097Z,15.13
2023-02-17T11:56:28.128Z,15.08
2023-02-17T11:57:28.137Z,14.95
2023-02-17T11:58:28.044Z,15.01
2023-02-17T11:59:28.051Z,15.17
2023-02-17T12:00:28.052Z,15.13
2023-02-17T12:01:28.056Z,15.19
2023-02-17T12:02:28.051Z,15.20
2023-02-17T12:03:28.132Z,15.30
2023-02-17T12:04:28.010Z,15.27
2023-02-17T12:05:27.944Z,15.31
2023-02-17T12:06:27.967Z,15.31
2023-02-17T12:07:27.955Z,15.26
2023-02-17T12:08:27.949Z,15.33
2023-02-17T12:09:27.933Z,15.31
2023-02-17T12:10:27.961Z,15.30
2023-02-17T12:11:27.885Z,15.31
2023-02-17T12:12:27.879Z,15.39
2023-02-17T12:13:27.928Z,15.46
2023-02-17T12:14:29.777Z,15.52
2023-02-17T12:15:27.874Z,15.57
2023-02-17T12:16:27.868Z,15.63
2023-02-17T12:17:27.823Z,15.66
2023-02-17T12:18:27.800Z,15.63
2023-02-17T12:19:27.743Z,15.61
2023-02-17T12:20:27.807Z,15.56
2023-02-17T12:21:27.736Z,15.66
2023-02-17T12:22:27.755Z,15.70
2023-02-17T12:23:27.751Z,15.60
2023-02-17T12:24:27.705Z,15.48
2023-02-17T12:25:27.669Z,15.60
2023-02-17T12:26:27.791Z,15.52
2023-02-17T12:27:27.659Z,15.49
2023-02-17T12:28:27.686Z,15.46
2023-02-17T12:29:27.650Z,15.46
2023-02-17T12:30:27.770Z,15.45
2023-02-17T12:31:27.791Z,15.46
2023-02-17T12:32:27.623Z,15.42
2023-02-17T12:33:27.678Z,15.45
2023-02-17T12:34:27.591Z,15.54
2023-02-17T12:35:27.550Z,15.51
2023-02-17T12:36:27.550Z,15.49
2023-02-17T12:37:27.534Z,15.48
2023-02-17T12:38:27.540Z,15.52
2023-02-17T12:39:27.539Z,15.64
2023-02-17T12:40:27.530Z,15.64
2023-02-17T12:41:27.475Z,15.61
2023-02-17T12:42:27.461Z,15.61
2023-02-17T12:43:27.510Z,15.64
2023-02-17T12:44:27.458Z,15.56
2023-02-17T12:45:27.435Z,15.61
2023-02-17T12:46:27.469Z,15.66
2023-02-17T12:47:27.422Z,15.63
2023-02-17T12:48:27.391Z,15.61
2023-02-17T12:49:27.418Z,15.63
2023-02-17T12:50:27.402Z,15.70
2023-02-17T12:51:27.354Z,15.61
2023-02-17T12:52:27.322Z,15.54